sensor_id;sensor_type;location;lat;lon;timestamp;pressure;altitude;pressure_sealevel;temperature;humidity
24031;BME280;12240;51.142;22.486;2024-03-07T00:02:42;53250.96;;;-142.79;33.19
24031;BME280;12240;51.142;22.486;2024-03-07T00:05:11;53471.29;;;-142.79;27.69
24031;BME280;12240;51.142;22.486;2024-03-07T00:07:39;53500.28;;;-142.79;26.59
24031;BME280;12240;51.142;22.486;2024-03-07T00:10:07;53504.84;;;-142.79;26.21
24031;BME280;12240;51.142;22.486;2024-03-07T00:12:34;53476.68;;;-142.79;27.01
24031;BME280;12240;51.142;22.486;2024-03-07T00:15:03;53462.59;;;-142.79;26.84
24031;BME280;12240;51.142;22.486;2024-03-07T00:17:30;53476.26;;;-142.79;27.02
24031;BME280;12240;51.142;22.486;2024-03-07T00:19:56;53476.26;;;-142.79;26.82
24031;BME280;12240;51.142;22.486;2024-03-07T00:22:24;53464.25;;;-142.79;26.75
24031;BME280;12240;51.142;22.486;2024-03-07T00:24:53;53455.55;;;-142.79;27.11
24031;BME280;12240;51.142;22.486;2024-03-07T00:27:20;53439.81;;;-142.79;27.50
24031;BME280;12240;51.142;22.486;2024-03-07T00:29:48;53434.84;;;-142.79;27.42
24031;BME280;12240;51.142;22.486;2024-03-07T00:32:23;53465.91;;;-142.79;26.95
24031;BME280;12240;51.142;22.486;2024-03-07T00:34:50;53420.76;;;-142.79;27.60
24031;BME280;12240;51.142;22.486;2024-03-07T00:37:17;53447.26;;;-142.79;27.45
24031;BME280;12240;51.142;22.486;2024-03-07T00:39:44;53436.50;;;-142.79;27.39
24031;BME280;12240;51.142;22.486;2024-03-07T00:42:10;53442.71;;;-142.79;27.40
24031;BME280;12240;51.142;22.486;2024-03-07T00:44:38;53475.84;;;-142.79;26.88
24031;BME280;12240;51.142;22.486;2024-03-07T00:47:05;53460.93;;;-142.79;26.83
24031;BME280;12240;51.142;22.486;2024-03-07T00:49:32;53458.45;;;-142.79;26.99
24031;BME280;12240;51.142;22.486;2024-03-07T00:51:59;53471.71;;;-142.79;26.52
24031;BME280;12240;51.142;22.486;2024-03-07T00:54:26;53453.07;;;-142.79;26.70
24031;BME280;12240;51.142;22.486;2024-03-07T00:56:53;53477.09;;;-142.79;26.49
24031;BME280;12240;51.142;22.486;2024-03-07T00:59:21;53437.74;;;-142.79;26.94
24031;BME280;12240;51.142;22.486;2024-03-07T01:01:49;53440.64;;;-142.79;27.19
24031;BME280;12240;51.142;22.486;2024-03-07T01:04:16;53426.98;;;-142.79;27.65
24031;BME280;12240;51.142;22.486;2024-03-07T01:06:43;53417.45;;;-142.79;27.91
24031;BME280;12240;51.142;22.486;2024-03-07T01:09:10;53404.61;;;-142.79;27.96
24031;BME280;12240;51.142;22.486;2024-03-07T01:11:44;53423.24;;;-142.79;27.90
24031;BME280;12240;51.142;22.486;2024-03-07T01:14:12;53414.14;;;-142.79;27.77
24031;BME280;12240;51.142;22.486;2024-03-07T01:16:40;53424.90;;;-142.79;27.47
24031;BME280;12240;51.142;22.486;2024-03-07T01:19:07;53418.69;;;-142.79;27.54
24031;BME280;12240;51.142;22.486;2024-03-07T01:21:35;53393.01;;;-142.79;27.93
24031;BME280;12240;51.142;22.486;2024-03-07T01:24:05;53388.46;;;-142.79;28.11
24031;BME280;12240;51.142;22.486;2024-03-07T01:26:32;53417.03;;;-142.79;27.80
24031;BME280;12240;51.142;22.486;2024-03-07T01:29:02;53433.60;;;-142.79;27.50
24031;BME280;12240;51.142;22.486;2024-03-07T01:38:11;53272.91;;;-142.79;27.81
24031;BME280;12240;51.142;22.486;2024-03-07T01:40:43;53411.23;;;-142.79;27.85
24031;BME280;12240;51.142;22.486;2024-03-07T01:43:10;53421.59;;;-142.79;27.53
24031;BME280;12240;51.142;22.486;2024-03-07T01:45:37;53405.44;;;-142.79;27.80
24031;BME280;12240;51.142;22.486;2024-03-07T01:48:09;53413.30;;;-142.79;28.11
24031;BME280;12240;51.142;22.486;2024-03-07T01:50:37;53418.69;;;-142.79;27.87
24031;BME280;12240;51.142;22.486;2024-03-07T01:53:06;53404.61;;;-142.79;28.17
24031;BME280;12240;51.142;22.486;2024-03-07T01:55:35;53409.99;;;-142.79;27.97
24031;BME280;12240;51.142;22.486;2024-03-07T01:58:02;53391.36;;;-142.79;27.96
24031;BME280;12240;51.142;22.486;2024-03-07T02:00:30;53380.59;;;-142.79;28.16
24031;BME280;12240;51.142;22.486;2024-03-07T02:02:57;53381.41;;;-142.79;28.33
24031;BME280;12240;51.142;22.486;2024-03-07T02:05:24;53391.35;;;-142.79;28.24
24031;BME280;12240;51.142;22.486;2024-03-07T02:07:50;53407.51;;;-142.79;27.98
24031;BME280;12240;51.142;22.486;2024-03-07T02:10:17;53381.41;;;-142.79;28.08
24031;BME280;12240;51.142;22.486;2024-03-07T02:12:44;53371.06;;;-142.79;28.42
24031;BME280;12240;51.142;22.486;2024-03-07T02:15:11;53391.77;;;-142.79;28.05
24031;BME280;12240;51.142;22.486;2024-03-07T02:17:40;53409.99;;;-142.79;27.78
24031;BME280;12240;51.142;22.486;2024-03-07T02:20:07;53394.25;;;-142.79;27.98
24031;BME280;12240;51.142;22.486;2024-03-07T02:22:37;53364.44;;;-142.79;28.55
24031;BME280;12240;51.142;22.486;2024-03-07T02:25:03;53364.85;;;-142.79;28.77
24031;BME280;12240;51.142;22.486;2024-03-07T02:27:30;53357.39;;;-142.79;28.63
24031;BME280;12240;51.142;22.486;2024-03-07T02:29:56;53391.35;;;-142.79;28.14
24031;BME280;12240;51.142;22.486;2024-03-07T02:32:22;53383.90;;;-142.79;27.91
24031;BME280;12240;51.142;22.486;2024-03-07T02:34:49;53385.14;;;-142.79;28.07
24031;BME280;12240;51.142;22.486;2024-03-07T02:37:15;53389.28;;;-142.79;28.13
24031;BME280;12240;51.142;22.486;2024-03-07T02:39:41;53403.78;;;-142.79;27.92
24031;BME280;12240;51.142;22.486;2024-03-07T02:42:07;53390.11;;;-142.79;28.34
24031;BME280;12240;51.142;22.486;2024-03-07T02:44:33;53399.23;;;-142.79;27.92
24031;BME280;12240;51.142;22.486;2024-03-07T02:47:00;53371.48;;;-142.79;28.38
24031;BME280;12240;51.142;22.486;2024-03-07T02:49:29;53399.64;;;-142.79;28.24
24031;BME280;12240;51.142;22.486;2024-03-07T02:51:56;53406.26;;;-142.79;27.71
24031;BME280;12240;51.142;22.486;2024-03-07T02:54:22;53374.38;;;-142.79;27.97
24031;BME280;12240;51.142;22.486;2024-03-07T02:56:48;53392.59;;;-142.79;27.77
24031;BME280;12240;51.142;22.486;2024-03-07T03:02:15;53368.16;;;-142.79;28.18
24031;BME280;12240;51.142;22.486;2024-03-07T03:04:41;53395.91;;;-142.79;27.73
24031;BME280;12240;51.142;22.486;2024-03-07T03:07:07;53402.54;;;-142.79;27.41
24031;BME280;12240;51.142;22.486;2024-03-07T03:09:34;53398.81;;;-142.79;27.34
24031;BME280;12240;51.142;22.486;2024-03-07T03:12:00;53386.39;;;-142.79;27.51
24031;BME280;12240;51.142;22.486;2024-03-07T03:14:26;53387.63;;;-142.79;27.58
24031;BME280;12240;51.142;22.486;2024-03-07T03:16:53;53384.32;;;-142.79;28.02
24031;BME280;12240;51.142;22.486;2024-03-07T03:19:19;53335.44;;;-142.79;28.33
24031;BME280;12240;51.142;22.486;2024-03-07T03:21:45;53369.82;;;-142.79;27.81
24031;BME280;12240;51.142;22.486;2024-03-07T03:24:11;53390.52;;;-142.79;27.67
24031;BME280;12240;51.142;22.486;2024-03-07T03:26:37;53392.18;;;-142.79;27.37
24031;BME280;12240;51.142;22.486;2024-03-07T03:29:04;53387.63;;;-142.79;27.50
24031;BME280;12240;51.142;22.486;2024-03-07T03:31:30;53369.40;;;-142.79;27.69
24031;BME280;12240;51.142;22.486;2024-03-07T03:33:56;53392.59;;;-142.79;27.46
24031;BME280;12240;51.142;22.486;2024-03-07T03:36:22;53374.38;;;-142.79;27.79
24031;BME280;12240;51.142;22.486;2024-03-07T03:38:50;53354.91;;;-142.79;28.35
24031;BME280;12240;51.142;22.486;2024-03-07T03:41:17;53354.49;;;-142.79;28.34
24031;BME280;12240;51.142;22.486;2024-03-07T03:43:44;53362.77;;;-142.79;28.44
24031;BME280;12240;51.142;22.486;2024-03-07T03:46:10;53359.88;;;-142.79;28.30
24031;BME280;12240;51.142;22.486;2024-03-07T03:48:40;53356.15;;;-142.79;28.56
24031;BME280;12240;51.142;22.486;2024-03-07T03:51:07;53348.70;;;-142.79;28.28
24031;BME280;12240;51.142;22.486;2024-03-07T03:53:35;53374.37;;;-142.79;28.15
24031;BME280;12240;51.142;22.486;2024-03-07T03:56:03;53373.96;;;-142.79;27.87
24031;BME280;12240;51.142;22.486;2024-03-07T03:58:48;53370.65;;;-142.79;28.09
24031;BME280;12240;51.142;22.486;2024-03-07T04:01:14;53368.57;;;-142.79;27.65
24031;BME280;12240;51.142;22.486;2024-03-07T04:03:42;53335.86;;;-142.79;28.42
24031;BME280;12240;51.142;22.486;2024-03-07T04:06:08;53370.23;;;-142.79;28.25
24031;BME280;12240;51.142;22.486;2024-03-07T04:08:34;53383.07;;;-142.79;27.76
24031;BME280;12240;51.142;22.486;2024-03-07T04:11:02;53360.29;;;-142.79;28.12
24031;BME280;12240;51.142;22.486;2024-03-07T04:13:29;53357.39;;;-142.79;27.81
24031;BME280;12240;51.142;22.486;2024-03-07T04:15:56;53323.02;;;-142.79;28.68
24031;BME280;12240;51.142;22.486;2024-03-07T04:18:22;53327.16;;;-142.79;29.27
24031;BME280;12240;51.142;22.486;2024-03-07T04:20:49;53340.41;;;-142.79;28.70
24031;BME280;12240;51.142;22.486;2024-03-07T04:23:15;53364.85;;;-142.79;28.10
24031;BME280;12240;51.142;22.486;2024-03-07T04:25:41;53335.86;;;-142.79;28.34
24031;BME280;12240;51.142;22.486;2024-03-07T04:28:08;53350.76;;;-142.79;28.24
24031;BME280;12240;51.142;22.486;2024-03-07T04:30:34;53321.77;;;-142.79;28.38
24031;BME280;12240;51.142;22.486;2024-03-07T04:33:00;53306.45;;;-142.79;29.71
24031;BME280;12240;51.142;22.486;2024-03-07T04:35:26;53322.19;;;-142.79;29.21
24031;BME280;12240;51.142;22.486;2024-03-07T04:37:53;53338.34;;;-142.79;28.67
24031;BME280;12240;51.142;22.486;2024-03-07T04:40:19;53325.50;;;-142.79;28.84
24031;BME280;12240;51.142;22.486;2024-03-07T04:42:47;53335.86;;;-142.79;28.74
24031;BME280;12240;51.142;22.486;2024-03-07T04:45:18;53353.25;;;-142.79;28.38
24031;BME280;12240;51.142;22.486;2024-03-07T04:47:45;53329.64;;;-142.79;28.45
24031;BME280;12240;51.142;22.486;2024-03-07T04:50:13;53335.02;;;-142.79;28.29
24031;BME280;12240;51.142;22.486;2024-03-07T04:52:43;53335.86;;;-142.79;28.51
24031;BME280;12240;51.142;22.486;2024-03-07T04:55:10;53324.68;;;-142.79;28.59
24031;BME280;12240;51.142;22.486;2024-03-07T04:57:37;53333.78;;;-142.79;28.50
24031;BME280;12240;51.142;22.486;2024-03-07T05:00:13;53321.77;;;-142.79;28.71
24031;BME280;12240;51.142;22.486;2024-03-07T05:02:49;53346.21;;;-142.79;28.39
24031;BME280;12240;51.142;22.486;2024-03-07T05:05:16;53355.32;;;-142.79;28.10
24031;BME280;12240;51.142;22.486;2024-03-07T05:07:52;53343.31;;;-142.79;27.99
24031;BME280;12240;51.142;22.486;2024-03-07T05:10:19;53334.20;;;-142.79;28.33
24031;BME280;12240;51.142;22.486;2024-03-07T05:12:45;53340.82;;;-142.79;28.34
24031;BME280;12240;51.142;22.486;2024-03-07T05:15:11;53336.69;;;-142.79;28.36
24031;BME280;12240;51.142;22.486;2024-03-07T05:17:37;53331.71;;;-142.79;28.78
24031;BME280;12240;51.142;22.486;2024-03-07T05:20:06;53315.15;;;-142.79;28.82
24031;BME280;12240;51.142;22.486;2024-03-07T05:22:36;53320.95;;;-142.79;29.68
24031;BME280;12240;51.142;22.486;2024-03-07T05:25:19;53315.56;;;-142.79;29.18
24031;BME280;12240;51.142;22.486;2024-03-07T05:27:45;53351.18;;;-142.79;28.34
24031;BME280;12240;51.142;22.486;2024-03-07T05:30:12;53338.76;;;-142.79;28.24
24031;BME280;12240;51.142;22.486;2024-03-07T05:32:39;53336.69;;;-142.79;28.24
24031;BME280;12240;51.142;22.486;2024-03-07T05:35:06;53347.45;;;-142.79;28.30
24031;BME280;12240;51.142;22.486;2024-03-07T05:37:33;53353.66;;;-142.79;27.99
24031;BME280;12240;51.142;22.486;2024-03-07T05:39:59;53349.11;;;-142.79;28.24
24031;BME280;12240;51.142;22.486;2024-03-07T05:42:25;53352.01;;;-142.79;28.28
24031;BME280;12240;51.142;22.486;2024-03-07T05:44:52;53344.14;;;-142.79;27.95
24031;BME280;12240;51.142;22.486;2024-03-07T05:47:20;53373.13;;;-142.79;27.85
24031;BME280;12240;51.142;22.486;2024-03-07T05:49:46;53357.80;;;-142.79;27.67
24031;BME280;12240;51.142;22.486;2024-03-07T05:52:12;53366.51;;;-142.79;27.73
24031;BME280;12240;51.142;22.486;2024-03-07T05:54:38;53375.20;;;-142.79;27.49
24031;BME280;12240;51.142;22.486;2024-03-07T05:57:04;53390.94;;;-142.79;26.86
24031;BME280;12240;51.142;22.486;2024-03-07T05:59:33;53412.06;;;-142.79;26.65
24031;BME280;12240;51.142;22.486;2024-03-07T06:02:00;53440.64;;;-142.79;26.04
24031;BME280;12240;51.142;22.486;2024-03-07T06:04:26;53417.86;;;-142.79;26.12
24031;BME280;12240;51.142;22.486;2024-03-07T06:06:52;53414.96;;;-142.79;26.13
24031;BME280;12240;51.142;22.486;2024-03-07T06:09:19;53436.91;;;-142.79;26.12
24031;BME280;12240;51.142;22.486;2024-03-07T06:11:48;53406.26;;;-142.79;26.16
24031;BME280;12240;51.142;22.486;2024-03-07T06:14:16;53444.78;;;-142.79;26.00
24031;BME280;12240;51.142;22.486;2024-03-07T06:16:43;53461.35;;;-142.79;25.43
24031;BME280;12240;51.142;22.486;2024-03-07T06:19:10;53442.30;;;-142.79;25.56
24031;BME280;12240;51.142;22.486;2024-03-07T06:21:40;53438.98;;;-142.79;25.40
24031;BME280;12240;51.142;22.486;2024-03-07T06:24:07;53401.29;;;-142.79;26.16
24031;BME280;12240;51.142;22.486;2024-03-07T06:26:37;53410.82;;;-142.79;25.99
24031;BME280;12240;51.142;22.486;2024-03-07T06:29:12;53430.29;;;-142.79;25.68
24031;BME280;12240;51.142;22.486;2024-03-07T06:31:40;53467.15;;;-142.79;25.30
24031;BME280;12240;51.142;22.486;2024-03-07T06:34:09;53446.44;;;-142.79;25.19
24031;BME280;12240;51.142;22.486;2024-03-07T06:36:35;53458.45;;;-142.79;25.19
24031;BME280;12240;51.142;22.486;2024-03-07T06:39:02;53465.49;;;-142.79;25.05
24031;BME280;12240;51.142;22.486;2024-03-07T06:41:32;53483.71;;;-142.79;24.82
24031;BME280;12240;51.142;22.486;2024-03-07T06:44:00;53481.64;;;-142.79;24.81
24031;BME280;12240;51.142;22.486;2024-03-07T06:46:26;53461.35;;;-142.79;25.05
24031;BME280;12240;51.142;22.486;2024-03-07T06:48:53;53497.38;;;-142.79;24.66
24031;BME280;12240;51.142;22.486;2024-03-07T06:51:20;53507.74;;;-142.79;24.39
24031;BME280;12240;51.142;22.486;2024-03-07T06:53:46;53509.39;;;-142.79;24.39
24031;BME280;12240;51.142;22.486;2024-03-07T06:56:16;53544.60;;;-142.79;23.94
24031;BME280;12240;51.142;22.486;2024-03-07T06:58:43;53523.89;;;-142.79;23.85
24031;BME280;12240;51.142;22.486;2024-03-07T07:01:13;53477.50;;;-142.79;24.27
24031;BME280;12240;51.142;22.486;2024-03-07T07:03:42;53454.72;;;-142.79;24.98
24031;BME280;12240;51.142;22.486;2024-03-07T07:06:13;53466.32;;;-142.79;24.77
24031;BME280;12240;51.142;22.486;2024-03-07T07:08:39;53493.66;;;-142.79;24.44
24031;BME280;12240;51.142;22.486;2024-03-07T07:11:06;53482.89;;;-142.79;24.48
24031;BME280;12240;51.142;22.486;2024-03-07T07:13:32;53508.57;;;-142.79;24.23
24031;BME280;12240;51.142;22.486;2024-03-07T07:15:59;53496.14;;;-142.79;24.30
24031;BME280;12240;51.142;22.486;2024-03-07T07:18:26;53458.86;;;-142.79;24.72
24031;BME280;12240;51.142;22.486;2024-03-07T07:20:52;53469.63;;;-142.79;24.82
24031;BME280;12240;51.142;22.486;2024-03-07T07:23:19;53499.87;;;-142.79;24.25
24031;BME280;12240;51.142;22.486;2024-03-07T07:25:46;53523.48;;;-142.79;23.96
24031;BME280;12240;51.142;22.486;2024-03-07T07:28:12;53514.36;;;-142.79;24.13
24031;BME280;12240;51.142;22.486;2024-03-07T07:30:39;53499.04;;;-142.79;24.18
24031;BME280;12240;51.142;22.486;2024-03-07T07:33:10;53499.87;;;-142.79;24.41
24031;BME280;12240;51.142;22.486;2024-03-07T07:35:37;53542.94;;;-142.79;23.93
24031;BME280;12240;51.142;22.486;2024-03-07T07:38:04;53597.62;;;-142.79;23.31
24031;BME280;12240;51.142;22.486;2024-03-07T07:40:33;53581.46;;;-142.79;23.11
24031;BME280;12240;51.142;22.486;2024-03-07T07:42:59;53521.41;;;-142.79;23.53
24031;BME280;12240;51.142;22.486;2024-03-07T07:45:27;53501.11;;;-142.79;24.06
24031;BME280;12240;51.142;22.486;2024-03-07T07:47:53;53501.52;;;-142.79;23.92
24031;BME280;12240;51.142;22.486;2024-03-07T07:50:21;53494.07;;;-142.79;23.90
24031;BME280;12240;51.142;22.486;2024-03-07T07:52:49;53512.71;;;-142.79;23.93
24031;BME280;12240;51.142;22.486;2024-03-07T07:55:27;53438.57;;;-142.79;24.96
24031;BME280;12240;51.142;22.486;2024-03-07T07:57:56;53506.91;;;-142.79;24.20
24031;BME280;12240;51.142;22.486;2024-03-07T08:00:28;53517.68;;;-142.79;23.87
24031;BME280;12240;51.142;22.486;2024-03-07T08:02:59;53502.77;;;-142.79;23.89
24031;BME280;12240;51.142;22.486;2024-03-07T08:05:33;53518.51;;;-142.79;23.97
24031;BME280;12240;51.142;22.486;2024-03-07T08:08:05;53465.08;;;-142.79;24.73
24031;BME280;12240;51.142;22.486;2024-03-07T08:10:33;53453.48;;;-142.79;24.79
24031;BME280;12240;51.142;22.486;2024-03-07T08:13:01;53464.25;;;-142.79;24.74
24031;BME280;12240;51.142;22.486;2024-03-07T08:15:30;53491.58;;;-142.79;24.41
24031;BME280;12240;51.142;22.486;2024-03-07T08:17:57;53422.00;;;-142.79;25.14
24031;BME280;12240;51.142;22.486;2024-03-07T08:20:25;53471.29;;;-142.79;24.78
24031;BME280;12240;51.142;22.486;2024-03-07T08:22:53;53462.18;;;-142.79;24.58
24031;BME280;12240;51.142;22.486;2024-03-07T08:25:25;53480.81;;;-142.79;24.41
24031;BME280;12240;51.142;22.486;2024-03-07T08:27:56;53432.77;;;-142.79;24.66
24031;BME280;12240;51.142;22.486;2024-03-07T08:30:24;53418.69;;;-142.79;25.03
24031;BME280;12240;51.142;22.486;2024-03-07T08:32:54;53430.29;;;-142.79;24.85
24031;BME280;12240;51.142;22.486;2024-03-07T08:35:22;53425.73;;;-142.79;24.86
24031;BME280;12240;51.142;22.486;2024-03-07T08:37:50;53422.00;;;-142.79;25.17
24031;BME280;12240;51.142;22.486;2024-03-07T08:40:20;53424.49;;;-142.79;25.23
24031;BME280;12240;51.142;22.486;2024-03-07T08:42:53;53361.12;;;-142.79;26.26
24031;BME280;12240;51.142;22.486;2024-03-07T08:45:25;53367.33;;;-142.79;26.27
24031;BME280;12240;51.142;22.486;2024-03-07T08:47:55;53347.87;;;-142.79;27.36
24031;BME280;12240;51.142;22.486;2024-03-07T08:50:24;53384.73;;;-142.79;26.24
24031;BME280;12240;51.142;22.486;2024-03-07T08:52:54;53396.32;;;-142.79;26.00
24031;BME280;12240;51.142;22.486;2024-03-07T08:55:22;53430.29;;;-142.79;25.66
24031;BME280;12240;51.142;22.486;2024-03-07T08:57:49;53406.27;;;-142.79;25.40
24031;BME280;12240;51.142;22.486;2024-03-07T09:00:19;53367.33;;;-142.79;26.52
24031;BME280;12240;51.142;22.486;2024-03-07T09:02:58;53424.49;;;-142.79;25.68
24031;BME280;12240;51.142;22.486;2024-03-07T09:05:28;53400.05;;;-142.79;25.74
24031;BME280;12240;51.142;22.486;2024-03-07T09:07:54;53450.99;;;-142.79;25.45
24031;BME280;12240;51.142;22.486;2024-03-07T09:10:21;53492.82;;;-142.79;24.61
24031;BME280;12240;51.142;22.486;2024-03-07T09:12:50;53473.36;;;-142.79;25.04
24031;BME280;12240;51.142;22.486;2024-03-07T09:15:16;53458.86;;;-142.79;24.95
24031;BME280;12240;51.142;22.486;2024-03-07T09:17:44;53448.51;;;-142.79;24.98
24031;BME280;12240;51.142;22.486;2024-03-07T09:20:11;53502.35;;;-142.79;24.55
24031;BME280;12240;51.142;22.486;2024-03-07T09:22:41;53491.17;;;-142.79;24.39
24031;BME280;12240;51.142;22.486;2024-03-07T09:25:08;53476.67;;;-142.79;24.53
24031;BME280;12240;51.142;22.486;2024-03-07T09:27:34;53483.71;;;-142.79;24.46
24031;BME280;12240;51.142;22.486;2024-03-07T09:30:01;53462.18;;;-142.79;24.93
24031;BME280;12240;51.142;22.486;2024-03-07T09:32:27;53450.99;;;-142.79;24.76
24031;BME280;12240;51.142;22.486;2024-03-07T09:34:54;53398.80;;;-142.79;25.36
24031;BME280;12240;51.142;22.486;2024-03-07T09:37:20;53420.76;;;-142.79;25.39
24031;BME280;12240;51.142;22.486;2024-03-07T09:39:49;53424.07;;;-142.79;25.35
24031;BME280;12240;51.142;22.486;2024-03-07T09:42:17;53443.54;;;-142.79;25.18
24031;BME280;12240;51.142;22.486;2024-03-07T09:44:45;53448.51;;;-142.79;25.21
24031;BME280;12240;51.142;22.486;2024-03-07T09:47:13;53339.58;;;-142.79;26.53
24031;BME280;12240;51.142;22.486;2024-03-07T09:49:40;53368.16;;;-142.79;26.67
24031;BME280;12240;51.142;22.486;2024-03-07T09:52:07;53392.59;;;-142.79;26.02
24031;BME280;12240;51.142;22.486;2024-03-07T09:54:38;53419.11;;;-142.79;25.56
24031;BME280;12240;51.142;22.486;2024-03-07T09:57:07;53401.29;;;-142.79;25.53
24031;BME280;12240;51.142;22.486;2024-03-07T09:59:36;53416.62;;;-142.79;25.40
24031;BME280;12240;51.142;22.486;2024-03-07T10:02:07;53385.14;;;-142.79;25.74
24031;BME280;12240;51.142;22.486;2024-03-07T10:04:42;53418.69;;;-142.79;25.62
24031;BME280;12240;51.142;22.486;2024-03-07T10:07:11;53435.67;;;-142.79;25.26
24031;BME280;12240;51.142;22.486;2024-03-07T10:09:40;53402.95;;;-142.79;25.58
24031;BME280;12240;51.142;22.486;2024-03-07T10:12:08;53420.35;;;-142.79;25.24
24031;BME280;12240;51.142;22.486;2024-03-07T10:14:48;53429.46;;;-142.79;25.02
24031;BME280;12240;51.142;22.486;2024-03-07T10:17:16;53409.16;;;-142.79;25.23
24031;BME280;12240;51.142;22.486;2024-03-07T10:19:42;53398.81;;;-142.79;25.50
24031;BME280;12240;51.142;22.486;2024-03-07T10:22:09;53429.46;;;-142.79;25.37
24031;BME280;12240;51.142;22.486;2024-03-07T10:24:35;53446.02;;;-142.79;24.69
24031;BME280;12240;51.142;22.486;2024-03-07T10:27:01;53421.59;;;-142.79;24.92
24031;BME280;12240;51.142;22.486;2024-03-07T10:29:28;53417.45;;;-142.79;25.14
24031;BME280;12240;51.142;22.486;2024-03-07T10:31:54;53435.26;;;-142.79;25.04
24031;BME280;12240;51.142;22.486;2024-03-07T10:34:34;53422.41;;;-142.79;24.98
24031;BME280;12240;51.142;22.486;2024-03-07T10:37:00;53435.67;;;-142.79;24.99
24031;BME280;12240;51.142;22.486;2024-03-07T10:39:30;53408.34;;;-142.79;25.14
24031;BME280;12240;51.142;22.486;2024-03-07T10:42:00;53421.59;;;-142.79;25.12
24031;BME280;12240;51.142;22.486;2024-03-07T10:44:32;53417.45;;;-142.79;25.40
24031;BME280;12240;51.142;22.486;2024-03-07T10:47:04;53437.74;;;-142.79;24.89
24031;BME280;12240;51.142;22.486;2024-03-07T10:49:34;53415.38;;;-142.79;25.04
24031;BME280;12240;51.142;22.486;2024-03-07T10:52:06;53384.31;;;-142.79;25.30
24031;BME280;12240;51.142;22.486;2024-03-07T10:57:23;53401.71;;;-142.79;25.23
24031;BME280;12240;51.142;22.486;2024-03-07T11:00:00;53404.61;;;-142.79;25.37
24031;BME280;12240;51.142;22.486;2024-03-07T11:02:46;53441.05;;;-142.79;24.71
24031;BME280;12240;51.142;22.486;2024-03-07T11:05:13;53407.09;;;-142.79;24.70
24031;BME280;12240;51.142;22.486;2024-03-07T11:07:42;53397.57;;;-142.79;24.78
24031;BME280;12240;51.142;22.486;2024-03-07T11:10:10;53337.10;;;-142.79;25.84
24031;BME280;12240;51.142;22.486;2024-03-07T11:12:41;53356.98;;;-142.79;26.27
24031;BME280;12240;51.142;22.486;2024-03-07T11:15:12;53356.56;;;-142.79;26.04
24031;BME280;12240;51.142;22.486;2024-03-07T11:17:49;53394.67;;;-142.79;25.56
24031;BME280;12240;51.142;22.486;2024-03-07T11:20:22;53400.05;;;-142.79;25.37
24031;BME280;12240;51.142;22.486;2024-03-07T11:22:49;53409.16;;;-142.79;24.87
24031;BME280;12240;51.142;22.486;2024-03-07T11:25:19;53393.01;;;-142.79;25.48
24031;BME280;12240;51.142;22.486;2024-03-07T11:27:57;53408.34;;;-142.79;25.29
24031;BME280;12240;51.142;22.486;2024-03-07T11:30:24;53424.90;;;-142.79;25.23
24031;BME280;12240;51.142;22.486;2024-03-07T11:32:52;53426.56;;;-142.79;25.05
24031;BME280;12240;51.142;22.486;2024-03-07T11:35:33;53442.71;;;-142.79;24.70
24031;BME280;12240;51.142;22.486;2024-03-07T11:38:06;53460.93;;;-142.79;24.20
24031;BME280;12240;51.142;22.486;2024-03-07T11:43:01;53413.72;;;-142.79;24.60
24031;BME280;12240;51.142;22.486;2024-03-07T11:45:31;53436.09;;;-142.79;24.24
24031;BME280;12240;51.142;22.486;2024-03-07T11:48:04;53458.86;;;-142.79;24.21
24031;BME280;12240;51.142;22.486;2024-03-07T11:50:37;53464.66;;;-142.79;24.10
24031;BME280;12240;51.142;22.486;2024-03-07T11:53:06;53446.85;;;-142.79;24.23
24031;BME280;12240;51.142;22.486;2024-03-07T11:55:37;53465.07;;;-142.79;24.23
24031;BME280;12240;51.142;22.486;2024-03-07T11:58:15;53431.11;;;-142.79;24.25
24031;BME280;12240;51.142;22.486;2024-03-07T12:02:39;53214.11;;;-142.79;28.87
24031;BME280;12240;51.142;22.486;2024-03-07T12:05:07;53435.26;;;-142.79;24.70
24031;BME280;12240;51.142;22.486;2024-03-07T12:07:35;53410.82;;;-142.79;24.62
24031;BME280;12240;51.142;22.486;2024-03-07T12:10:03;53451.82;;;-142.79;24.37
24031;BME280;12240;51.142;22.486;2024-03-07T12:12:30;53404.61;;;-142.79;24.61
24031;BME280;12240;51.142;22.486;2024-03-07T12:14:59;53387.63;;;-142.79;25.03
24031;BME280;12240;51.142;22.486;2024-03-07T12:17:31;53406.68;;;-142.79;24.76
24031;BME280;12240;51.142;22.486;2024-03-07T12:19:58;53430.29;;;-142.79;24.40
24031;BME280;12240;51.142;22.486;2024-03-07T12:22:29;53450.99;;;-142.79;24.12
24031;BME280;12240;51.142;22.486;2024-03-07T12:25:18;53256.76;;;-142.79;24.66
24031;BME280;12240;51.142;22.486;2024-03-07T12:27:59;53390.52;;;-142.79;25.12
24031;BME280;12240;51.142;22.486;2024-03-07T12:30:33;53390.11;;;-142.79;25.24
24031;BME280;12240;51.142;22.486;2024-03-07T12:33:01;53422.83;;;-142.79;24.73
24031;BME280;12240;51.142;22.486;2024-03-07T12:35:31;53428.21;;;-142.79;24.33
24031;BME280;12240;51.142;22.486;2024-03-07T12:37:59;53457.63;;;-142.79;24.16
24031;BME280;12240;51.142;22.486;2024-03-07T12:40:26;53459.69;;;-142.79;23.99
24031;BME280;12240;51.142;22.486;2024-03-07T12:42:56;53464.66;;;-142.79;24.27
24031;BME280;12240;51.142;22.486;2024-03-07T12:45:23;53443.96;;;-142.79;24.45
24031;BME280;12240;51.142;22.486;2024-03-07T12:47:53;53461.35;;;-142.79;24.21
24031;BME280;12240;51.142;22.486;2024-03-07T12:50:21;53473.77;;;-142.79;23.75
24031;BME280;12240;51.142;22.486;2024-03-07T12:52:48;53414.96;;;-142.79;24.07
24031;BME280;12240;51.142;22.486;2024-03-07T12:55:18;53433.60;;;-142.79;24.26